Time;durP1;ratioP1;P1;durP2;ratioP2;P2;SDS_P1;SDS_P2;PMS_P1;PMS_P2;Temp;Humidity;BMP_temperature;BMP_pressure;BME280_temperature;BME280_humidity;BME280_pressure;Samples;Min_cycle;Max_cycle;Signal;HPM_P1;HPM_P2
2021/12/17 00:05:07;;;;;;;23.00;15.77;;;;;;;;;;5055359;28;20261;-67
2021/12/17 00:07:35;;;;;;;20.33;14.48;;;;;;;;;;5054990;28;20163;-68
2021/12/17 00:10:02;;;;;;;17.77;13.90;;;;;;;;;;5054848;28;20244;-67
2021/12/17 00:12:29;;;;;;;21.10;14.63;;;;;;;;;;5054879;28;20259;-67
2021/12/17 00:14:56;;;;;;;18.70;14.57;;;;;;;;;;5054865;28;20157;-67
2021/12/17 00:17:24;;;;;;;16.85;14.02;;;;;;;;;;5054847;28;20211;-68
2021/12/17 00:52:24;;;;;;;27.35;18.27;;;;;;;;;;5054060;28;20168;-68
2021/12/17 00:54:50;;;;;;;26.25;19.52;;;;;;;;;;5054169;28;20206;-68
2021/12/17 00:57:18;;;;;;;23.73;18.70;;;;;;;;;;5053945;28;20211;-68
2021/12/17 00:59:46;;;;;;;19.67;17.02;;;;;;;;;;5054115;28;20535;-68
2021/12/17 01:02:14;;;;;;;21.75;17.02;;;;;;;;;;5052667;28;20544;-70
2021/12/17 01:04:43;;;;;;;18.90;16.35;;;;;;;;;;5052737;28;20222;-70
2021/12/17 01:07:09;;;;;;;19.75;16.58;;;;;;;;;;5053937;28;20179;-69
2021/12/17 01:09:36;;;;;;;26.33;18.77;;;;;;;;;;5053763;28;20620;-69
2021/12/17 01:12:02;;;;;;;23.80;17.73;;;;;;;;;;5053809;28;20635;-72
2021/12/17 01:14:29;;;;;;;25.75;19.83;;;;;;;;;;5053917;28;20169;-71
2021/12/17 01:16:56;;;;;;;29.13;20.00;;;;;;;;;;5052334;28;20274;-72
2021/12/17 01:19:43;;;;;;;25.90;20.17;;;;;;;;;;5053700;28;20246;-70
2021/12/17 01:24:51;;;;;;;23.27;18.63;;;;;;;;;;5053954;28;20169;-71
2021/12/17 01:35:31;;;;;;;24.48;19.10;;;;;;;;;;5053554;28;20227;-72
2021/12/17 01:39:06;;;;;;;27.63;20.23;;;;;;;;;;5051297;28;20220;-71
2021/12/17 01:43:23;;;;;;;25.75;19.33;;;;;;;;;;5053682;28;20172;-72
2021/12/17 01:45:49;;;;;;;28.45;21.10;;;;;;;;;;5053394;28;20203;-72
2021/12/17 01:48:20;;;;;;;30.63;20.85;;;;;;;;;;5052078;28;20176;-71
2021/12/17 02:01:47;;;;;;;26.85;19.73;;;;;;;;;;5053228;28;20237;-68
2021/12/17 02:04:13;;;;;;;34.80;21.15;;;;;;;;;;5051901;28;20564;-69
2021/12/17 02:06:39;;;;;;;33.83;19.80;;;;;;;;;;5053100;28;20160;-68
2021/12/17 02:09:43;;;;;;;30.08;19.90;;;;;;;;;;5053024;28;20215;-68
2021/12/17 02:20:22;;;;;;;27.90;20.33;;;;;;;;;;5053149;28;20230;-69
2021/12/17 02:31:19;;;;;;;30.77;21.17;;;;;;;;;;5052995;28;20617;-69
2021/12/17 02:33:45;;;;;;;30.77;20.30;;;;;;;;;;5052944;28;20161;-69
2021/12/17 02:36:11;;;;;;;32.63;20.65;;;;;;;;;;5051630;28;20172;-68
2021/12/17 02:38:39;;;;;;;35.15;21.17;;;;;;;;;;5051538;28;20223;-68
2021/12/17 02:46:38;;;;;;;30.25;20.92;;;;;;;;;;5052854;28;20175;-68
2021/12/17 02:49:05;;;;;;;29.20;20.30;;;;;;;;;;5053167;28;20173;-69
2021/12/17 02:51:31;;;;;;;26.00;17.65;;;;;;;;;;5056508;28;20165;-68
2021/12/17 02:53:59;;;;;;;26.20;18.90;;;;;;;;;;5056456;28;20632;-68
2021/12/17 02:56:25;;;;;;;27.73;19.73;;;;;;;;;;5056366;28;20381;-72
2021/12/17 02:58:53;;;;;;;28.77;19.67;;;;;;;;;;5056291;28;20200;-72
2021/12/17 03:01:20;;;;;;;26.90;19.55;;;;;;;;;;5056330;28;20624;-69
2021/12/17 03:03:49;;;;;;;25.02;18.63;;;;;;;;;;5056252;28;20173;-71
2021/12/17 03:06:15;;;;;;;28.25;19.45;;;;;;;;;;5056196;28;20172;-70
2021/12/17 03:08:41;;;;;;;24.58;18.92;;;;;;;;;;5055972;28;20157;-72
2021/12/17 03:11:08;;;;;;;27.55;19.40;;;;;;;;;;5056066;28;20631;-71
2021/12/17 03:13:37;;;;;;;26.42;19.35;;;;;;;;;;5056117;28;20165;-70
2021/12/17 03:16:10;;;;;;;26.08;18.75;;;;;;;;;;5054745;28;20253;-72
2021/12/17 03:18:57;;;;;;;27.60;19.90;;;;;;;;;;5054638;28;20204;-72
2021/12/17 03:24:08;;;;;;;30.00;20.05;;;;;;;;;;5055828;28;20226;-72
2021/12/17 03:26:34;;;;;;;29.30;19.75;;;;;;;;;;5055814;28;20173;-70
2021/12/17 03:29:04;;;;;;;24.40;18.65;;;;;;;;;;5055778;28;20255;-70
2021/12/17 03:31:30;;;;;;;26.05;19.13;;;;;;;;;;5056021;28;20184;-71
2021/12/17 03:34:04;;;;;;;25.35;18.63;;;;;;;;;;5055664;28;20175;-72
2021/12/17 03:36:31;;;;;;;26.15;19.48;;;;;;;;;;5055655;28;20168;-72
2021/12/17 03:38:57;;;;;;;30.50;21.00;;;;;;;;;;5055577;28;20678;-70
2021/12/17 03:41:28;;;;;;;34.60;20.40;;;;;;;;;;5055631;28;20176;-71
2021/12/17 03:43:55;;;;;;;25.23;18.92;;;;;;;;;;5055776;28;20403;-69
2021/12/17 03:46:22;;;;;;;24.33;18.33;;;;;;;;;;5055538;28;20530;-68
2021/12/17 03:48:48;;;;;;;26.05;18.02;;;;;;;;;;5055703;28;20243;-68
2021/12/17 03:51:16;;;;;;;31.90;18.08;;;;;;;;;;5055351;28;20170;-68
2021/12/17 03:53:43;;;;;;;28.08;19.23;;;;;;;;;;5055414;28;20157;-68
2021/12/17 03:56:09;;;;;;;26.75;18.67;;;;;;;;;;5053991;28;20184;-68
2021/12/17 03:58:36;;;;;;;37.72;24.42;;;;;;;;;;5053927;28;20216;-68
2021/12/17 04:01:02;;;;;;;28.92;19.00;;;;;;;;;;5054389;28;20168;-69
2021/12/17 04:03:28;;;;;;;31.98;17.13;;;;;;;;;;5055379;28;20173;-73
2021/12/17 04:05:54;;;;;;;35.58;19.48;;;;;;;;;;5055148;28;20230;-72
2021/12/17 04:08:20;;;;;;;28.45;17.95;;;;;;;;;;5054886;28;20181;-72
2021/12/17 04:10:49;;;;;;;55.57;18.70;;;;;;;;;;5054802;28;20250;-69
2021/12/17 04:13:32;;;;;;;63.55;19.70;;;;;;;;;;5055014;28;20396;-71
2021/12/17 04:16:02;;;;;;;82.18;22.48;;;;;;;;;;5054899;28;20152;-72
2021/12/17 04:18:28;;;;;;;69.78;18.33;;;;;;;;;;5054787;28;20196;-70
2021/12/17 04:20:54;;;;;;;63.45;20.67;;;;;;;;;;5053521;28;20176;-72
2021/12/17 04:23:21;;;;;;;44.72;18.23;;;;;;;;;;5054886;28;20164;-70
2021/12/17 04:25:48;;;;;;;39.50;17.77;;;;;;;;;;5054715;28;20701;-71
2021/12/17 04:28:14;;;;;;;34.75;18.95;;;;;;;;;;5054695;28;20172;-72
2021/12/17 04:30:40;;;;;;;55.72;19.70;;;;;;;;;;5054596;28;20169;-68
2021/12/17 04:33:06;;;;;;;35.37;16.47;;;;;;;;;;5054467;28;20172;-70
2021/12/17 04:35:33;;;;;;;25.70;17.90;;;;;;;;;;5054539;28;20399;-72
2021/12/17 04:38:00;;;;;;;26.02;18.13;;;;;;;;;;5054295;28;20548;-71
2021/12/17 04:40:27;;;;;;;29.55;15.57;;;;;;;;;;5054363;28;20623;-68
2021/12/17 04:43:01;;;;;;;37.00;16.80;;;;;;;;;;5054475;28;20160;-72
2021/12/17 04:45:28;;;;;;;26.15;16.55;;;;;;;;;;5052974;28;20172;-69
2021/12/17 04:58:53;;;;;;;60.95;17.90;;;;;;;;;;5054023;28;20608;-69
2021/12/17 05:01:19;;;;;;;74.75;18.90;;;;;;;;;;5053974;28;20156;-68
2021/12/17 05:03:45;;;;;;;50.35;19.55;;;;;;;;;;5054009;28;20173;-68
2021/12/17 05:06:11;;;;;;;32.53;18.73;;;;;;;;;;5053949;28;20210;-69
2021/12/17 05:08:37;;;;;;;77.20;24.50;;;;;;;;;;5052425;28;20771;-69
2021/12/17 05:22:08;;;;;;;144.80;30.65;;;;;;;;;;5045195;28;20185;-69
2021/12/17 05:24:34;;;;;;;109.85;26.23;;;;;;;;;;5053677;28;20251;-69
2021/12/17 05:27:00;;;;;;;143.47;26.10;;;;;;;;;;5053552;28;20260;-69
2021/12/17 05:29:26;;;;;;;99.88;24.85;;;;;;;;;;5053645;28;20774;-68
2021/12/17 05:31:52;;;;;;;41.22;20.33;;;;;;;;;;5052250;28;20172;-69
2021/12/17 05:34:18;;;;;;;38.50;20.87;;;;;;;;;;5053476;28;20583;-68
2021/12/17 05:36:44;;;;;;;54.93;20.63;;;;;;;;;;5053502;28;20502;-68
2021/12/17 05:39:10;;;;;;;53.03;19.38;;;;;;;;;;5053470;28;20415;-69
2021/12/17 05:41:36;;;;;;;63.57;22.13;;;;;;;;;;5053431;28;20180;-69
2021/12/17 05:44:02;;;;;;;73.55;20.10;;;;;;;;;;5052043;28;20426;-68
2021/12/17 05:46:49;;;;;;;42.38;22.55;;;;;;;;;;5053347;28;20690;-69
2021/12/17 05:49:15;;;;;;;43.17;20.90;;;;;;;;;;5053309;28;20161;-68
2021/12/17 05:51:41;;;;;;;67.55;23.55;;;;;;;;;;5052085;28;20259;-70
2021/12/17 05:54:07;;;;;;;40.83;21.02;;;;;;;;;;5053315;28;20623;-69
2021/12/17 05:56:33;;;;;;;62.33;26.37;;;;;;;;;;5053356;28;20183;-69
2021/12/17 05:58:59;;;;;;;66.97;22.90;;;;;;;;;;5054284;28;21119;-73
2021/12/17 06:01:25;;;;;;;56.03;22.50;;;;;;;;;;5053299;28;20407;-69
2021/12/17 06:03:51;;;;;;;52.13;23.97;;;;;;;;;;5053254;28;20893;-73
2021/12/17 06:06:30;;;;;;;71.03;24.60;;;;;;;;;;5053125;28;20399;-70
2021/12/17 06:08:56;;;;;;;77.20;24.20;;;;;;;;;;5053040;28;20454;-71
2021/12/17 06:11:23;;;;;;;35.50;23.60;;;;;;;;;;5053089;28;20234;-71
2021/12/17 06:13:49;;;;;;;47.45;23.98;;;;;;;;;;5053062;28;20271;-70
2021/12/17 06:16:15;;;;;;;54.83;25.17;;;;;;;;;;5053155;28;20165;-73
2021/12/17 06:18:44;;;;;;;66.10;23.67;;;;;;;;;;5052975;28;20228;-72
2021/12/17 06:21:10;;;;;;;76.82;23.80;;;;;;;;;;5053151;28;20168;-72
2021/12/17 06:23:37;;;;;;;99.70;29.00;;;;;;;;;;5051781;28;20203;-71
2021/12/17 06:26:03;;;;;;;63.25;24.30;;;;;;;;;;5056550;28;20172;-71
2021/12/17 06:28:29;;;;;;;82.30;28.17;;;;;;;;;;5056930;28;20176;-73
2021/12/17 06:30:55;;;;;;;90.33;27.70;;;;;;;;;;5056865;28;20175;-72
2021/12/17 06:33:21;;;;;;;47.17;25.03;;;;;;;;;;5056772;28;20514;-72
2021/12/17 06:35:47;;;;;;;91.75;36.45;;;;;;;;;;5056881;28;20399;-72
2021/12/17 06:38:13;;;;;;;63.53;30.87;;;;;;;;;;5056628;28;20208;-72
2021/12/17 06:40:39;;;;;;;59.33;27.55;;;;;;;;;;5055408;28;20419;-70
2021/12/17 06:43:05;;;;;;;41.17;23.77;;;;;;;;;;5056552;28;20386;-71
2021/12/17 06:45:55;;;;;;;37.10;22.80;;;;;;;;;;5056678;28;20171;-72
2021/12/17 06:48:25;;;;;;;29.88;21.00;;;;;;;;;;5056503;28;20427;-70
2021/12/17 07:07:12;;;;;;;20.08;16.45;;;;;;;;;;5056471;28;20226;-71
2021/12/17 07:17:52;;;;;;;20.08;16.50;;;;;;;;;;5056032;28;20199;-70
2021/12/17 07:23:09;;;;;;;23.55;17.75;;;;;;;;;;5055890;28;20251;-71
2021/12/17 07:33:38;;;;;;;37.08;22.50;;;;;;;;;;5055906;28;20206;-70
2021/12/17 07:36:16;;;;;;;107.43;30.25;;;;;;;;;;5054349;28;20646;-68
2021/12/17 07:38:50;;;;;;;68.65;29.55;;;;;;;;;;5055562;28;20511;-67
2021/12/17 07:41:16;;;;;;;127.72;33.10;;;;;;;;;;5055606;28;20514;-69
2021/12/17 07:43:52;;;;;;;61.88;31.38;;;;;;;;;;5055642;28;20168;-70
2021/12/17 07:46:19;;;;;;;46.92;29.70;;;;;;;;;;5055463;28;20192;-68
2021/12/17 07:48:45;;;;;;;39.00;25.25;;;;;;;;;;5056206;28;20176;-68
2021/12/17 07:51:12;;;;;;;52.13;25.23;;;;;;;;;;5054103;28;20176;-70
2021/12/17 07:53:39;;;;;;;42.17;25.33;;;;;;;;;;5055463;28;20438;-69
2021/12/17 07:56:07;;;;;;;42.90;24.15;;;;;;;;;;5054036;28;20187;-69
2021/12/17 07:58:33;;;;;;;56.13;25.35;;;;;;;;;;5055212;28;20200;-68
2021/12/17 08:00:59;;;;;;;41.35;24.45;;;;;;;;;;5055213;28;20623;-69
2021/12/17 08:03:27;;;;;;;41.38;26.10;;;;;;;;;;5055216;28;20255;-68
2021/12/17 08:05:54;;;;;;;133.93;34.88;;;;;;;;;;5055160;28;20575;-68
2021/12/17 08:08:20;;;;;;;105.63;30.85;;;;;;;;;;5054956;28;20567;-68
2021/12/17 08:10:49;;;;;;;47.65;28.05;;;;;;;;;;5054752;28;20220;-68
2021/12/17 08:13:22;;;;;;;56.58;27.02;;;;;;;;;;5055033;28;20171;-68
2021/12/17 08:16:07;;;;;;;47.22;25.52;;;;;;;;;;5054944;28;20214;-68
2021/12/17 08:24:18;;;;;;;73.30;25.45;;;;;;;;;;5054734;28;20175;-69
2021/12/17 08:31:29;;;;;;;63.17;23.65;;;;;;;;;;5054557;28;20161;-68
2021/12/17 08:33:55;;;;;;;49.78;24.35;;;;;;;;;;5054551;28;20319;-69
2021/12/17 08:36:22;;;;;;;65.57;25.50;;;;;;;;;;5054530;28;20165;-69
2021/12/17 08:38:49;;;;;;;45.22;24.25;;;;;;;;;;5054388;28;20204;-69
2021/12/17 08:41:16;;;;;;;47.17;24.33;;;;;;;;;;5054353;28;20635;-69
2021/12/17 08:43:42;;;;;;;47.55;25.05;;;;;;;;;;5054611;28;20259;-69
2021/12/17 08:46:09;;;;;;;42.05;25.00;;;;;;;;;;5053027;28;20643;-69
2021/12/17 08:48:35;;;;;;;54.78;26.30;;;;;;;;;;5053991;28;20632;-68
2021/12/17 08:51:01;;;;;;;46.45;26.77;;;;;;;;;;5054373;28;20192;-69
2021/12/17 08:53:27;;;;;;;46.47;24.48;;;;;;;;;;5052848;28;20184;-68
2021/12/17 08:55:53;;;;;;;48.28;24.65;;;;;;;;;;5054171;28;20172;-68
2021/12/17 08:58:19;;;;;;;43.27;24.83;;;;;;;;;;5053998;28;20226;-69
2021/12/17 09:00:46;;;;;;;51.57;24.70;;;;;;;;;;5052763;28;20395;-69
2021/12/17 09:03:13;;;;;;;47.70;26.02;;;;;;;;;;5053940;28;20378;-70
2021/12/17 09:05:40;;;;;;;61.65;27.42;;;;;;;;;;5053907;28;20165;-68
2021/12/17 09:08:07;;;;;;;42.20;25.05;;;;;;;;;;5052723;28;20192;-69
2021/12/17 09:10:33;;;;;;;41.30;23.80;;;;;;;;;;5053690;28;20227;-69
2021/12/17 09:13:00;;;;;;;39.70;24.40;;;;;;;;;;5054029;28;20202;-69
2021/12/17 09:15:26;;;;;;;40.22;24.35;;;;;;;;;;5052365;28;20176;-69
2021/12/17 09:17:52;;;;;;;42.38;25.55;;;;;;;;;;5053675;28;20594;-69
2021/12/17 09:20:18;;;;;;;50.95;25.10;;;;;;;;;;5053606;28;20165;-69
2021/12/17 09:22:44;;;;;;;54.15;26.17;;;;;;;;;;5052403;28;20584;-69
2021/12/17 09:25:10;;;;;;;51.20;26.45;;;;;;;;;;5053668;28;20178;-69
2021/12/17 09:27:37;;;;;;;128.10;27.95;;;;;;;;;;5053354;28;20692;-69
2021/12/17 09:30:07;;;;;;;75.05;28.42;;;;;;;;;;5053646;28;20227;-70
2021/12/17 09:32:33;;;;;;;87.30;32.53;;;;;;;;;;5053434;28;20168;-69
2021/12/17 09:34:59;;;;;;;78.80;35.90;;;;;;;;;;5053516;28;20199;-69
2021/12/17 09:37:25;;;;;;;92.30;36.73;;;;;;;;;;5053499;28;20243;-69
2021/12/17 09:39:51;;;;;;;105.75;37.67;;;;;;;;;;5053374;28;20438;-69
2021/12/17 09:42:17;;;;;;;123.93;43.47;;;;;;;;;;5053342;28;20199;-69
2021/12/17 09:44:43;;;;;;;101.60;40.37;;;;;;;;;;5053436;28;20378;-70
2021/12/17 09:47:09;;;;;;;88.67;38.40;;;;;;;;;;5053412;28;20414;-69
2021/12/17 09:49:35;;;;;;;164.95;40.25;;;;;;;;;;5052044;28;20430;-69
2021/12/17 09:52:01;;;;;;;171.52;43.88;;;;;;;;;;5051981;28;20180;-68
2021/12/17 09:54:28;;;;;;;104.90;34.15;;;;;;;;;;5051335;28;20259;-70
2021/12/17 09:56:54;;;;;;;151.68;34.20;;;;;;;;;;5052502;28;20226;-68
2021/12/17 09:59:20;;;;;;;95.70;29.25;;;;;;;;;;5054044;28;20172;-67
2021/12/17 10:01:47;;;;;;;216.98;32.25;;;;;;;;;;5057446;28;20175;-66
2021/12/17 10:04:16;;;;;;;80.93;27.65;;;;;;;;;;5055702;28;20179;-66
2021/12/17 10:06:42;;;;;;;55.85;25.15;;;;;;;;;;5057337;28;20172;-66
2021/12/17 10:09:08;;;;;;;51.00;24.05;;;;;;;;;;5055861;28;20220;-67
2021/12/17 10:11:34;;;;;;;62.78;25.83;;;;;;;;;;5057159;28;20176;-66
2021/12/17 10:14:24;;;;;;;88.00;25.10;;;;;;;;;;5057220;28;20627;-68
2021/12/17 10:16:50;;;;;;;117.88;25.67;;;;;;;;;;5057407;28;20194;-67
2021/12/17 10:19:35;;;;;;;83.38;26.65;;;;;;;;;;5057297;28;20261;-67
2021/12/17 10:22:11;;;;;;;107.75;26.23;;;;;;;;;;5057094;28;20175;-67
2021/12/17 10:24:38;;;;;;;180.48;29.85;;;;;;;;;;5055706;28;20175;-67
2021/12/17 10:27:20;;;;;;;120.35;28.80;;;;;;;;;;5056838;28;20177;-67
2021/12/17 10:29:47;;;;;;;120.47;29.83;;;;;;;;;;5056934;28;20168;-68
2021/12/17 10:32:17;;;;;;;101.30;29.17;;;;;;;;;;5056916;28;20256;-68
2021/12/17 10:35:01;;;;;;;70.90;27.48;;;;;;;;;;5056768;28;20169;-68
2021/12/17 10:37:32;;;;;;;180.75;26.13;;;;;;;;;;5055439;28;20191;-68
2021/12/17 10:39:58;;;;;;;88.55;23.85;;;;;;;;;;5056931;28;20177;-66
2021/12/17 10:42:31;;;;;;;130.93;26.80;;;;;;;;;;5056649;28;20184;-66
2021/12/17 10:45:05;;;;;;;45.47;25.25;;;;;;;;;;5056593;28;20172;-76
2021/12/17 10:47:34;;;;;;;47.45;25.00;;;;;;;;;;5056638;28;20570;-72
2021/12/17 10:50:02;;;;;;;90.78;25.92;;;;;;;;;;5056436;28;20697;-72
2021/12/17 10:52:40;;;;;;;110.78;26.98;;;;;;;;;;5056499;28;20167;-74
2021/12/17 10:55:07;;;;;;;107.03;23.90;;;;;;;;;;5056396;28;20206;-77
2021/12/17 10:57:33;;;;;;;91.68;26.10;;;;;;;;;;5056262;28;20659;-76
2021/12/17 11:00:01;;;;;;;59.90;24.10;;;;;;;;;;5056365;28;20214;-76
2021/12/17 11:02:33;;;;;;;81.85;25.20;;;;;;;;;;5056071;28;20389;-73
2021/12/17 11:05:09;;;;;;;35.60;23.15;;;;;;;;;;5056257;28;20153;-72
2021/12/17 11:07:37;;;;;;;50.08;23.13;;;;;;;;;;5056085;28;20191;-71
2021/12/17 11:10:03;;;;;;;63.93;23.33;;;;;;;;;;5055689;28;20263;-71
2021/12/17 11:12:29;;;;;;;49.67;22.17;;;;;;;;;;5054697;28;20430;-70
2021/12/17 11:15:05;;;;;;;61.00;22.90;;;;;;;;;;5056313;28;20177;-71
2021/12/17 11:17:31;;;;;;;44.92;22.08;;;;;;;;;;5055930;28;20192;-71
2021/12/17 11:19:57;;;;;;;39.17;24.70;;;;;;;;;;5055958;28;20576;-70
2021/12/17 11:22:26;;;;;;;44.30;23.53;;;;;;;;;;5056007;28;20377;-70
2021/12/17 11:24:52;;;;;;;37.50;27.00;;;;;;;;;;5055772;28;20435;-71
2021/12/17 11:27:18;;;;;;;69.30;23.20;;;;;;;;;;5055774;28;20462;-67
2021/12/17 11:29:44;;;;;;;63.30;21.97;;;;;;;;;;5055707;28;20386;-71
2021/12/17 11:32:10;;;;;;;135.73;22.23;;;;;;;;;;5055559;28;20458;-71
2021/12/17 11:34:36;;;;;;;82.77;23.97;;;;;;;;;;5055648;28;20443;-71
2021/12/17 11:37:04;;;;;;;35.60;20.50;;;;;;;;;;5055548;28;20468;-72
2021/12/17 11:39:34;;;;;;;37.90;21.00;;;;;;;;;;5055610;28;20389;-70
2021/12/17 11:42:06;;;;;;;40.25;22.95;;;;;;;;;;5055460;28;20442;-69
2021/12/17 11:44:42;;;;;;;34.05;21.23;;;;;;;;;;5055526;28;20164;-71
2021/12/17 11:47:10;;;;;;;88.60;23.05;;;;;;;;;;5055546;28;20164;-72
2021/12/17 11:49:48;;;;;;;79.27;23.77;;;;;;;;;;5055634;28;20180;-73
2021/12/17 11:52:14;;;;;;;160.05;27.10;;;;;;;;;;5055431;28;20794;-74
2021/12/17 11:54:40;;;;;;;71.57;22.13;;;;;;;;;;5055464;28;20172;-72
2021/12/17 11:57:08;;;;;;;146.77;24.20;;;;;;;;;;5055051;28;20260;-73
2021/12/17 11:59:35;;;;;;;54.78;36.22;;;;;;;;;;5053962;28;20176;-72
2021/12/17 12:02:03;;;;;;;136.15;25.10;;;;;;;;;;5055252;28;20169;-74
2021/12/17 12:04:32;;;;;;;298.00;31.52;;;;;;;;;;5055081;28;20173;-71
2021/12/17 12:07:00;;;;;;;87.95;25.77;;;;;;;;;;5055072;28;20196;-75
2021/12/17 12:09:45;;;;;;;155.70;25.80;;;;;;;;;;5054859;28;20220;-73
2021/12/17 12:12:11;;;;;;;44.40;21.98;;;;;;;;;;5054906;28;20411;-74
2021/12/17 12:14:37;;;;;;;49.92;23.77;;;;;;;;;;5054992;28;20616;-76
2021/12/17 12:17:03;;;;;;;50.30;23.67;;;;;;;;;;5054774;28;20620;-76
2021/12/17 12:19:48;;;;;;;52.40;24.77;;;;;;;;;;5054878;28;20422;-75
2021/12/17 12:22:14;;;;;;;68.30;26.77;;;;;;;;;;5054151;28;20399;-74
2021/12/17 12:24:40;;;;;;;47.20;26.40;;;;;;;;;;5054802;28;20165;-76
2021/12/17 12:27:06;;;;;;;46.67;26.00;;;;;;;;;;5054899;28;20517;-71
2021/12/17 12:29:34;;;;;;;163.37;29.47;;;;;;;;;;5054690;28;20382;-73
2021/12/17 12:32:02;;;;;;;400.67;35.57;;;;;;;;;;5053430;28;20449;-74
2021/12/17 12:34:31;;;;;;;64.88;26.52;;;;;;;;;;5054583;28;20431;-72
2021/12/17 12:37:00;;;;;;;48.92;25.90;;;;;;;;;;5054598;28;20169;-71
2021/12/17 12:39:29;;;;;;;177.90;28.85;;;;;;;;;;5054375;28;20200;-71
2021/12/17 12:41:56;;;;;;;111.40;27.50;;;;;;;;;;5053110;28;20186;-70
2021/12/17 12:44:41;;;;;;;103.75;29.67;;;;;;;;;;5054386;28;20203;-72
2021/12/17 12:47:08;;;;;;;73.45;26.60;;;;;;;;;;5054279;28;20199;-70
2021/12/17 12:49:44;;;;;;;86.05;27.60;;;;;;;;;;5054355;28;20267;-69
2021/12/17 12:52:16;;;;;;;56.67;28.55;;;;;;;;;;5054176;28;20634;-72
2021/12/17 12:54:42;;;;;;;48.15;27.63;;;;;;;;;;5054085;28;20168;-71
2021/12/17 12:57:09;;;;;;;49.87;27.20;;;;;;;;;;5054038;28;20203;-69
2021/12/17 12:59:35;;;;;;;37.83;25.27;;;;;;;;;;5052858;28;20415;-73
2021/12/17 13:02:01;;;;;;;40.63;24.65;;;;;;;;;;5054040;28;20414;-76
2021/12/17 13:04:31;;;;;;;43.03;25.48;;;;;;;;;;5054037;28;20617;-74
2021/12/17 13:06:57;;;;;;;77.30;23.60;;;;;;;;;;5054131;28;20221;-69
2021/12/17 13:09:29;;;;;;;63.30;25.55;;;;;;;;;;5053896;28;20219;-69
2021/12/17 13:11:55;;;;;;;63.13;27.00;;;;;;;;;;5053753;28;20203;-71
2021/12/17 13:14:24;;;;;;;84.00;27.63;;;;;;;;;;5053832;28;20892;-70
2021/12/17 13:17:19;;;;;;;60.03;24.70;;;;;;;;;;5054117;28;20450;-67
2021/12/17 13:22:57;;;;;;;107.43;26.33;;;;;;;;;;5041615;28;20419;-68
2021/12/17 13:25:27;;;;;;;49.63;23.00;;;;;;;;;;5053681;28;20476;-68
2021/12/17 13:27:53;;;;;;;78.43;24.13;;;;;;;;;;5053585;28;20183;-68
2021/12/17 13:30:26;;;;;;;87.00;25.17;;;;;;;;;;5053693;28;20438;-73
2021/12/17 13:32:53;;;;;;;34.50;23.97;;;;;;;;;;5052248;28;20463;-71
2021/12/17 13:35:19;;;;;;;39.33;25.90;;;;;;;;;;5053430;28;20407;-70
2021/12/17 13:37:45;;;;;;;75.83;30.87;;;;;;;;;;5053428;28;20458;-72
2021/12/17 13:40:12;;;;;;;55.40;27.90;;;;;;;;;;5053692;28;20844;-73
2021/12/17 13:42:42;;;;;;;52.20;27.10;;;;;;;;;;5053375;28;20382;-70
2021/12/17 13:45:13;;;;;;;62.97;27.37;;;;;;;;;;5052151;28;20413;-69
2021/12/17 13:47:41;;;;;;;62.33;33.30;;;;;;;;;;5032915;28;20465;-70
2021/12/17 13:50:12;;;;;;;90.70;28.93;;;;;;;;;;5044414;28;20394;-68
2021/12/17 13:52:49;;;;;;;77.37;30.47;;;;;;;;;;5051815;28;20759;-69
2021/12/17 13:55:17;;;;;;;136.27;32.60;;;;;;;;;;5052985;28;20410;-69
2021/12/17 13:57:43;;;;;;;52.67;27.97;;;;;;;;;;5052635;28;20538;-69
2021/12/17 14:00:11;;;;;;;53.30;27.80;;;;;;;;;;5052847;28;20411;-71
2021/12/17 14:02:38;;;;;;;62.53;31.07;;;;;;;;;;5051771;28;20425;-69
2021/12/17 14:05:07;;;;;;;60.53;29.93;;;;;;;;;;5053325;28;20414;-69
2021/12/17 14:07:35;;;;;;;118.63;28.80;;;;;;;;;;5053001;28;20437;-68
2021/12/17 14:10:03;;;;;;;120.93;36.40;;;;;;;;;;5052869;28;20469;-68
2021/12/17 14:12:32;;;;;;;65.80;32.27;;;;;;;;;;5052927;28;20415;-68
2021/12/17 14:15:06;;;;;;;57.43;34.23;;;;;;;;;;5053062;28;20399;-69
2021/12/17 14:17:33;;;;;;;39.03;25.53;;;;;;;;;;5052579;28;20432;-68
2021/12/17 14:20:07;;;;;;;45.43;25.37;;;;;;;;;;5053144;28;20411;-67
2021/12/17 14:22:35;;;;;;;37.87;25.57;;;;;;;;;;5053028;28;20366;-67
2021/12/17 14:25:01;;;;;;;68.60;28.20;;;;;;;;;;5052857;28;20473;-67
2021/12/17 14:27:47;;;;;;;43.87;25.37;;;;;;;;;;5052257;28;20422;-69
2021/12/17 14:30:13;;;;;;;56.57;27.73;;;;;;;;;;5053020;28;20490;-69
2021/12/17 14:32:49;;;;;;;58.13;26.15;;;;;;;;;;5051727;28;20396;-70
2021/12/17 14:35:16;;;;;;;72.83;41.33;;;;;;;;;;5052837;28;20539;-68
2021/12/17 14:37:51;;;;;;;54.13;29.27;;;;;;;;;;5053160;28;20524;-69
2021/12/17 14:40:38;;;;;;;56.37;30.27;;;;;;;;;;5052990;28;20888;-68
2021/12/17 14:43:17;;;;;;;58.43;30.20;;;;;;;;;;5052852;28;20868;-68
2021/12/17 14:45:51;;;;;;;106.28;28.67;;;;;;;;;;5054534;28;20869;-69
2021/12/17 14:48:20;;;;;;;86.22;30.77;;;;;;;;;;5056926;28;20172;-69
2021/12/17 15:04:37;;;;;;;154.00;31.20;;;;;;;;;;5076164;28;20402;-72
2021/12/17 15:07:04;;;;;;;113.65;35.38;;;;;;;;;;5076242;28;20247;-71
2021/12/17 15:09:32;;;;;;;167.57;37.55;;;;;;;;;;5075960;28;20678;-71
2021/12/17 15:12:00;;;;;;;84.00;32.05;;;;;;;;;;5075935;28;20183;-70
2021/12/17 15:14:26;;;;;;;95.67;31.50;;;;;;;;;;5076068;28;20152;-70
2021/12/17 15:16:53;;;;;;;161.20;35.20;;;;;;;;;;5074789;28;20388;-71
2021/12/17 15:19:20;;;;;;;184.50;36.97;;;;;;;;;;5075973;28;20479;-70
2021/12/17 15:21:45;;;;;;;296.17;37.28;;;;;;;;;;5076230;28;20882;-69
2021/12/17 15:24:11;;;;;;;205.47;35.10;;;;;;;;;;5075967;28;20199;-67
2021/12/17 15:26:38;;;;;;;272.00;38.87;;;;;;;;;;5075782;28;20388;-69
2021/12/17 15:29:04;;;;;;;74.25;34.63;;;;;;;;;;5075736;28;20385;-67
2021/12/17 15:31:30;;;;;;;160.07;34.87;;;;;;;;;;5075846;28;20160;-67
2021/12/17 15:33:57;;;;;;;154.70;33.70;;;;;;;;;;5075763;28;20381;-67
2021/12/17 15:36:23;;;;;;;85.88;32.30;;;;;;;;;;5075713;28;20451;-67
2021/12/17 15:38:49;;;;;;;99.83;33.83;;;;;;;;;;5075413;28;20207;-66
2021/12/17 15:41:15;;;;;;;74.13;32.23;;;;;;;;;;5074174;28;20492;-72
2021/12/17 15:43:41;;;;;;;70.80;32.00;;;;;;;;;;5075594;28;20415;-71
2021/12/17 15:46:07;;;;;;;60.30;29.43;;;;;;;;;;5074290;28;20417;-71
2021/12/17 15:48:32;;;;;;;76.90;31.10;;;;;;;;;;5075613;28;20483;-71
2021/12/17 15:50:59;;;;;;;81.13;28.60;;;;;;;;;;5075523;28;20848;-71
2021/12/17 15:53:24;;;;;;;81.78;28.80;;;;;;;;;;5075502;28;20393;-70
2021/12/17 15:55:51;;;;;;;85.77;26.90;;;;;;;;;;5074131;28;20187;-70
2021/12/17 15:58:17;;;;;;;179.18;38.38;;;;;;;;;;5072978;28;20460;-77
2021/12/17 16:00:43;;;;;;;146.73;37.47;;;;;;;;;;5075288;28;20200;-75
2021/12/17 16:03:12;;;;;;;338.67;41.78;;;;;;;;;;5075300;28;20407;-78
2021/12/17 16:05:38;;;;;;;331.13;37.95;;;;;;;;;;5074929;28;20167;-77
2021/12/17 16:08:05;;;;;;;213.93;36.17;;;;;;;;;;5075282;28;20176;-76
2021/12/17 16:18:54;;;;;;;264.40;33.08;;;;;;;;;;5074786;28;20693;-69
2021/12/17 16:21:20;;;;;;;170.15;34.15;;;;;;;;;;5074867;28;20663;-68
2021/12/17 16:23:48;;;;;;;104.60;33.87;;;;;;;;;;5074902;28;20172;-66
2021/12/17 16:26:17;;;;;;;259.83;36.58;;;;;;;;;;5074851;28;20614;-67
2021/12/17 16:28:47;;;;;;;295.48;38.30;;;;;;;;;;5073397;28;20176;-67
2021/12/17 16:31:23;;;;;;;211.35;33.50;;;;;;;;;;5074586;28;20196;-67
2021/12/17 16:33:58;;;;;;;131.82;36.25;;;;;;;;;;5073306;28;20203;-67
2021/12/17 16:36:24;;;;;;;322.88;40.33;;;;;;;;;;5074511;28;20159;-69
2021/12/17 16:38:51;;;;;;;156.77;36.85;;;;;;;;;;5074496;28;20199;-74
2021/12/17 16:41:17;;;;;;;166.52;35.42;;;;;;;;;;5073010;28;20168;-72
2021/12/17 16:43:43;;;;;;;223.38;38.80;;;;;;;;;;5073566;28;20576;-69
2021/12/17 16:48:36;;;;;;;302.57;42.90;;;;;;;;;;5074522;28;20623;-72
2021/12/17 16:51:02;;;;;;;323.30;39.53;;;;;;;;;;5074266;28;20405;-72
2021/12/17 16:53:28;;;;;;;194.52;32.78;;;;;;;;;;5074223;28;20172;-69
2021/12/17 16:55:54;;;;;;;99.43;31.53;;;;;;;;;;5074171;28;20167;-68
2021/12/17 16:58:21;;;;;;;223.40;38.47;;;;;;;;;;5073938;28;20947;-69
2021/12/17 17:00:47;;;;;;;297.13;33.42;;;;;;;;;;5074051;28;20423;-70
2021/12/17 17:03:14;;;;;;;129.10;31.95;;;;;;;;;;5074046;28;20163;-68
2021/12/17 17:05:41;;;;;;;189.32;31.20;;;;;;;;;;5074032;28;20167;-70
2021/12/17 17:08:07;;;;;;;211.23;31.98;;;;;;;;;;5073740;28;20174;-68
2021/12/17 17:10:34;;;;;;;217.20;29.87;;;;;;;;;;5073736;28;20653;-71
2021/12/17 17:13:03;;;;;;;253.50;29.55;;;;;;;;;;5073794;28;20408;-70
2021/12/17 17:15:34;;;;;;;246.23;34.15;;;;;;;;;;5073837;28;20573;-69
2021/12/17 17:18:00;;;;;;;138.02;29.13;;;;;;;;;;5073699;28;20306;-69
2021/12/17 17:20:26;;;;;;;268.88;39.00;;;;;;;;;;5056950;28;20172;-67
2021/12/17 17:22:52;;;;;;;139.13;28.95;;;;;;;;;;5052476;28;20172;-69